createdAt,value
2023-04-30T00:00:00.066Z,5.06
2023-04-30T00:01:04.171Z,5.12
2023-04-30T00:02:05.874Z,5.06
2023-04-30T00:03:13.290Z,5.06
2023-04-30T00:04:17.832Z,5.06
2023-04-30T00:05:21.865Z,5.00
2023-04-30T00:06:28.411Z,5.00
2023-04-30T00:07:30.676Z,5.00
2023-04-30T00:08:34.999Z,4.94
2023-04-30T00:09:39.348Z,4.94
2023-04-30T00:10:43.688Z,4.94
2023-04-30T00:11:48.019Z,4.81
2023-04-30T00:12:52.096Z,4.87
2023-04-30T00:13:56.976Z,4.87
2023-04-30T00:15:01.039Z,4.87
2023-04-30T00:16:01.536Z,4.75
2023-04-30T00:17:05.566Z,4.75
2023-04-30T00:18:09.652Z,4.75
2023-04-30T00:19:14.337Z,4.69
2023-04-30T00:20:18.571Z,4.69
2023-04-30T00:21:22.885Z,4.50
2023-04-30T00:22:26.958Z,4.50
2023-04-30T00:23:31.321Z,4.44
2023-04-30T00:24:36.171Z,4.06
2023-04-30T00:25:40.495Z,3.94
2023-04-30T00:26:44.340Z,3.75
2023-04-30T00:27:48.955Z,3.87
2023-04-30T00:28:53.023Z,4.12
2023-04-30T00:29:57.632Z,4.25
2023-04-30T00:31:01.955Z,4.31
2023-04-30T00:32:06.093Z,4.31
2023-04-30T00:33:10.442Z,4.44
2023-04-30T00:34:15.232Z,4.50
2023-04-30T00:35:19.565Z,4.56
2023-04-30T00:36:23.390Z,4.62
2023-04-30T00:37:27.710Z,4.50
2023-04-30T00:38:32.302Z,4.56
2023-04-30T00:39:36.649Z,4.50
2023-04-30T00:40:40.997Z,4.44
2023-04-30T00:41:45.061Z,4.44
2023-04-30T00:42:49.669Z,4.44
2023-04-30T00:43:54.238Z,4.25
2023-04-30T00:44:58.335Z,4.19
2023-04-30T00:46:03.751Z,4.12
2023-04-30T00:47:08.023Z,3.94
2023-04-30T00:48:12.436Z,4.12
2023-04-30T00:49:16.445Z,4.25
2023-04-30T00:50:21.042Z,4.31
2023-04-30T00:51:25.659Z,4.06
2023-04-30T00:52:29.974Z,3.94
2023-04-30T00:53:34.053Z,3.87
2023-04-30T00:54:38.411Z,4.00
2023-04-30T00:55:42.468Z,4.00
2023-04-30T00:56:47.065Z,4.06
2023-04-30T00:57:51.413Z,4.06
2023-04-30T00:58:55.500Z,3.94
2023-04-30T00:59:59.832Z,3.94
2023-04-30T01:01:04.507Z,3.94
2023-04-30T01:02:08.809Z,3.87
2023-04-30T01:03:12.950Z,3.87
2023-04-30T01:04:17.210Z,4.00
2023-04-30T01:05:21.802Z,3.81
2023-04-30T01:06:25.903Z,3.94
2023-04-30T01:07:30.220Z,4.06
2023-04-30T01:08:34.809Z,4.12
2023-04-30T01:09:39.156Z,4.12
2023-04-30T01:10:43.769Z,4.06
2023-04-30T01:11:48.097Z,3.94
2023-04-30T01:12:52.165Z,3.94
2023-04-30T01:13:56.524Z,4.00
2023-04-30T01:15:00.837Z,4.12
2023-04-30T01:16:06.460Z,4.19
2023-04-30T01:17:10.532Z,4.12
2023-04-30T01:18:14.977Z,4.19
2023-04-30T01:19:19.228Z,4.25
2023-04-30T01:20:23.569Z,4.19
2023-04-30T01:21:27.891Z,4.25
2023-04-30T01:22:31.983Z,4.31
2023-04-30T01:23:36.561Z,4.31
2023-04-30T01:24:40.911Z,4.19
2023-04-30T01:25:45.004Z,4.31
2023-04-30T01:26:49.334Z,4.31
2023-04-30T01:27:53.951Z,4.31
2023-04-30T01:28:58.295Z,4.31
2023-04-30T01:30:02.413Z,4.31
2023-04-30T01:31:06.766Z,4.25
2023-04-30T01:32:11.309Z,4.25
2023-04-30T01:33:15.382Z,4.25
2023-04-30T01:34:19.719Z,4.31
2023-04-30T01:35:24.093Z,4.25
2023-04-30T01:36:28.945Z,4.19
2023-04-30T01:37:32.995Z,4.25
2023-04-30T01:38:37.361Z,4.25
2023-04-30T01:39:41.433Z,4.19
2023-04-30T01:40:45.758Z,4.19
2023-04-30T01:41:50.090Z,4.06
2023-04-30T01:42:54.706Z,3.81
2023-04-30T01:43:59.032Z,3.69
2023-04-30T01:45:03.149Z,3.69
2023-04-30T01:46:09.033Z,3.75
2023-04-30T01:47:13.065Z,3.56
2023-04-30T01:48:17.421Z,3.62
2023-04-30T01:49:21.490Z,3.69
2023-04-30T01:50:26.195Z,3.75
2023-04-30T01:51:30.447Z,3.75
2023-04-30T01:52:34.509Z,3.81
2023-04-30T01:53:38.840Z,3.69
2023-04-30T01:54:43.456Z,3.75
2023-04-30T01:55:47.765Z,3.75
2023-04-30T01:56:52.113Z,3.31
2023-04-30T01:57:56.463Z,3.31
2023-04-30T01:59:00.544Z,3.50
2023-04-30T02:00:04.878Z,3.62
2023-04-30T02:01:09.248Z,3.56
2023-04-30T02:02:13.543Z,3.44
2023-04-30T02:03:18.184Z,3.56
2023-04-30T02:04:22.742Z,3.62
2023-04-30T02:05:26.840Z,3.69
2023-04-30T02:06:31.293Z,3.62
2023-04-30T02:07:35.507Z,3.69
2023-04-30T02:08:39.856Z,3.75
2023-04-30T02:09:43.919Z,3.75
2023-04-30T02:10:48.277Z,3.75
2023-04-30T02:11:52.883Z,3.81
2023-04-30T02:12:57.210Z,3.87
2023-04-30T02:14:01.791Z,3.87
2023-04-30T02:15:05.611Z,3.94
2023-04-30T02:16:11.522Z,3.94
2023-04-30T02:17:15.574Z,3.94
2023-04-30T02:18:19.927Z,3.87
2023-04-30T02:19:24.242Z,3.87
2023-04-30T02:20:28.874Z,3.87
2023-04-30T02:21:32.934Z,3.81
2023-04-30T02:22:37.363Z,3.75
2023-04-30T02:23:41.617Z,3.56
2023-04-30T02:24:45.975Z,3.50
2023-04-30T02:25:50.270Z,3.50
2023-04-30T02:26:54.620Z,3.37
2023-04-30T02:27:58.944Z,3.37
2023-04-30T02:29:03.033Z,3.37
2023-04-30T02:30:07.897Z,3.37
2023-04-30T02:31:11.975Z,3.37
2023-04-30T02:32:16.304Z,3.31
2023-04-30T02:33:20.648Z,3.19
2023-04-30T02:34:31.268Z,3.25
2023-04-30T02:35:29.317Z,3.25
2023-04-30T02:36:33.635Z,3.25
2023-04-30T02:37:37.987Z,3.19
2023-04-30T02:38:42.091Z,3.19
2023-04-30T02:39:46.927Z,3.25
2023-04-30T02:40:51.004Z,3.25
2023-04-30T02:41:55.103Z,3.19
2023-04-30T02:42:59.685Z,3.12
2023-04-30T02:44:03.753Z,3.12
2023-04-30T02:45:08.334Z,3.12
2023-04-30T02:46:14.008Z,3.12
2023-04-30T02:47:18.043Z,3.19
2023-04-30T02:48:22.629Z,3.12
2023-04-30T02:49:26.723Z,3.12
2023-04-30T02:50:30.806Z,3.12
2023-04-30T02:51:35.124Z,3.12
2023-04-30T02:52:39.456Z,3.19
2023-04-30T02:53:43.829Z,3.12
2023-04-30T02:54:48.140Z,3.12
2023-04-30T02:55:52.731Z,3.12
2023-04-30T02:56:57.095Z,3.12
2023-04-30T02:58:01.694Z,3.06
2023-04-30T02:59:05.504Z,3.00
2023-04-30T03:00:09.854Z,3.06
2023-04-30T03:01:14.204Z,3.06
2023-04-30T03:02:18.857Z,3.06
2023-04-30T03:03:23.196Z,3.06
2023-04-30T03:04:27.201Z,3.00
2023-04-30T03:05:32.072Z,2.94
2023-04-30T03:06:36.485Z,2.94
2023-04-30T03:07:40.511Z,2.94
2023-04-30T03:08:44.557Z,2.87
2023-04-30T03:09:49.191Z,2.81
2023-04-30T03:10:53.235Z,2.81
2023-04-30T03:11:57.846Z,2.75
2023-04-30T03:13:01.927Z,2.81
2023-04-30T03:14:06.498Z,2.75
2023-04-30T03:15:11.099Z,2.75
2023-04-30T03:16:16.233Z,2.75
2023-04-30T03:17:20.309Z,2.75
2023-04-30T03:18:24.860Z,2.62
2023-04-30T03:19:29.244Z,2.56
2023-04-30T03:20:33.531Z,2.62
2023-04-30T03:21:37.875Z,2.62
2023-04-30T03:22:42.050Z,2.62
2023-04-30T03:23:46.822Z,2.62
2023-04-30T03:24:50.902Z,2.62
2023-04-30T03:25:55.263Z,2.62
2023-04-30T03:26:59.588Z,2.62
2023-04-30T03:28:03.907Z,2.62
2023-04-30T03:29:08.256Z,2.69
2023-04-30T03:30:12.602Z,2.75
2023-04-30T03:31:17.012Z,2.69
2023-04-30T03:32:18.855Z,2.75
2023-04-30T03:33:23.748Z,2.62
2023-04-30T03:34:27.791Z,2.69
2023-04-30T03:35:32.109Z,2.69
2023-04-30T03:36:36.215Z,2.69
2023-04-30T03:37:40.807Z,2.69
2023-04-30T03:38:44.878Z,2.69
2023-04-30T03:39:49.218Z,2.69
2023-04-30T03:40:53.562Z,2.62
2023-04-30T03:41:57.921Z,2.56
2023-04-30T03:43:02.772Z,2.62
2023-04-30T03:44:07.091Z,2.69
2023-04-30T03:45:10.900Z,2.69
2023-04-30T03:46:16.528Z,2.75
2023-04-30T03:47:20.853Z,2.75
2023-04-30T03:48:24.922Z,2.69
2023-04-30T03:49:29.266Z,2.75
2023-04-30T03:50:33.876Z,2.75
2023-04-30T03:51:38.195Z,2.75
2023-04-30T03:52:42.796Z,2.69
2023-04-30T03:53:46.899Z,2.75
2023-04-30T03:54:50.952Z,2.81
2023-04-30T03:55:55.550Z,2.81
2023-04-30T03:56:59.936Z,2.81
2023-04-30T03:58:03.970Z,2.81
2023-04-30T03:59:08.570Z,2.81
2023-04-30T04:00:12.670Z,2.81
2023-04-30T04:01:17.494Z,2.81
2023-04-30T04:02:21.887Z,2.81
2023-04-30T04:03:25.664Z,2.81
2023-04-30T04:04:30.313Z,2.81
2023-04-30T04:05:34.351Z,2.81
2023-04-30T04:06:38.708Z,2.81
2023-04-30T04:07:43.272Z,2.81
2023-04-30T04:08:47.613Z,2.81
2023-04-30T04:09:52.425Z,2.75
2023-04-30T04:10:56.564Z,2.75
2023-04-30T04:12:00.394Z,2.75
2023-04-30T04:13:04.753Z,2.69
2023-04-30T04:14:09.325Z,2.69
2023-04-30T04:15:13.679Z,2.62
2023-04-30T04:16:19.116Z,2.69
2023-04-30T04:17:23.169Z,2.69
2023-04-30T04:18:27.740Z,2.69
2023-04-30T04:19:32.082Z,2.75
2023-04-30T04:20:36.170Z,2.75
2023-04-30T04:21:40.758Z,2.75
2023-04-30T04:22:45.098Z,2.81
2023-04-30T04:23:49.193Z,2.81
2023-04-30T04:24:53.769Z,2.81
2023-04-30T04:25:58.118Z,2.81
2023-04-30T04:27:02.465Z,2.87
2023-04-30T04:28:06.787Z,2.81
2023-04-30T04:29:11.169Z,2.81
2023-04-30T04:30:15.473Z,2.81
2023-04-30T04:31:19.595Z,2.81
2023-04-30T04:32:24.192Z,2.75
2023-04-30T04:33:28.487Z,2.75
2023-04-30T04:34:32.807Z,2.75
2023-04-30T04:35:37.161Z,2.81
2023-04-30T04:36:41.768Z,2.81
2023-04-30T04:37:45.825Z,2.87
2023-04-30T04:38:50.169Z,2.94
2023-04-30T04:39:54.740Z,2.94
2023-04-30T04:40:58.583Z,3.00
2023-04-30T04:42:02.940Z,3.06
2023-04-30T04:43:07.260Z,3.06
2023-04-30T04:44:11.600Z,3.06
2023-04-30T04:45:16.496Z,3.12
2023-04-30T04:46:22.134Z,3.12
2023-04-30T04:48:29.970Z,3.31
2023-04-30T04:49:34.575Z,3.37
2023-04-30T04:50:38.916Z,3.50
2023-04-30T04:51:42.987Z,3.69
2023-04-30T04:53:58.853Z,3.87
2023-04-30T04:55:04.170Z,3.87
2023-04-30T04:56:08.485Z,4.00
2023-04-30T04:57:12.568Z,4.06
2023-04-30T04:58:16.915Z,4.12
2023-04-30T04:59:21.246Z,4.25
2023-04-30T05:00:25.959Z,4.37
2023-04-30T05:01:29.928Z,4.37
2023-04-30T05:02:34.333Z,4.50
2023-04-30T05:03:39.000Z,4.56
2023-04-30T05:04:43.193Z,4.62
2023-04-30T05:05:47.534Z,4.75
2023-04-30T05:06:51.576Z,4.81
2023-04-30T05:07:55.981Z,4.87
2023-04-30T05:09:00.873Z,4.94
2023-04-30T05:10:04.945Z,5.00
2023-04-30T05:11:09.540Z,5.06
2023-04-30T05:12:14.141Z,5.12
2023-04-30T05:13:18.486Z,5.19
2023-04-30T05:14:22.298Z,5.19
2023-04-30T05:15:26.625Z,5.25
2023-04-30T05:16:31.274Z,5.37
2023-04-30T05:17:35.602Z,5.37
2023-04-30T05:18:39.639Z,5.50
2023-04-30T05:19:44.214Z,5.62
2023-04-30T05:20:48.564Z,5.69
2023-04-30T05:21:53.162Z,5.81
2023-04-30T05:22:56.797Z,5.94
2023-04-30T05:23:57.408Z,6.00
2023-04-30T05:25:01.694Z,5.94
2023-04-30T05:26:06.035Z,6.00
2023-04-30T05:27:10.134Z,5.94
2023-04-30T05:28:14.692Z,5.87
2023-04-30T05:29:19.018Z,5.94
2023-04-30T05:30:29.864Z,5.87
2023-04-30T05:31:27.745Z,5.87
2023-04-30T05:32:32.136Z,5.94
2023-04-30T05:33:36.655Z,5.87
2023-04-30T05:34:40.749Z,5.87
2023-04-30T05:35:45.097Z,5.94
2023-04-30T05:36:51.380Z,5.94
2023-04-30T05:37:50.106Z,5.94
2023-04-30T05:38:52.008Z,6.06
2023-04-30T05:39:56.527Z,6.12
2023-04-30T05:41:00.692Z,6.25
2023-04-30T05:42:05.291Z,6.37
2023-04-30T05:43:09.624Z,6.56
2023-04-30T05:44:13.699Z,6.81
2023-04-30T05:45:18.293Z,6.94
2023-04-30T05:46:23.112Z,7.06
2023-04-30T05:47:26.726Z,7.25
2023-04-30T05:48:31.374Z,7.44
2023-04-30T05:49:36.169Z,7.44
2023-04-30T05:50:40.262Z,7.56
2023-04-30T05:51:44.601Z,7.62
2023-04-30T05:52:48.931Z,7.87
2023-04-30T05:53:49.083Z,7.87
2023-04-30T05:54:53.424Z,7.94
2023-04-30T05:55:57.763Z,8.13
2023-04-30T05:57:02.108Z,8.19
2023-04-30T05:58:06.718Z,8.19
2023-04-30T05:59:10.788Z,8.38
2023-04-30T06:00:15.477Z,8.50
2023-04-30T06:01:19.329Z,8.63
2023-04-30T06:02:23.992Z,8.81
2023-04-30T06:03:28.002Z,8.94
2023-04-30T06:04:32.369Z,9.06
2023-04-30T06:05:36.983Z,9.06
2023-04-30T06:06:41.292Z,9.13
2023-04-30T06:07:45.652Z,9.31
2023-04-30T06:08:49.941Z,9.38
2023-04-30T06:09:54.204Z,9.50
2023-04-30T06:10:58.409Z,9.44
2023-04-30T06:12:02.698Z,9.13
2023-04-30T06:13:07.290Z,9.06
2023-04-30T06:14:11.636Z,8.94
2023-04-30T06:15:16.216Z,8.81
2023-04-30T06:16:20.597Z,8.81
2023-04-30T06:17:24.729Z,9.19
2023-04-30T06:18:28.974Z,9.31
2023-04-30T06:19:33.064Z,9.50
2023-04-30T06:20:37.528Z,9.56
2023-04-30T06:21:41.730Z,9.31
2023-04-30T06:22:46.078Z,9.06
2023-04-30T06:23:46.184Z,9.31
2023-04-30T06:24:50.544Z,9.56
2023-04-30T06:25:55.357Z,9.81
2023-04-30T06:26:59.454Z,9.94
2023-04-30T06:28:03.536Z,10.19
2023-04-30T06:29:07.874Z,10.19
2023-04-30T06:30:12.197Z,10.19
2023-04-30T06:31:16.807Z,10.19
2023-04-30T06:32:21.141Z,10.44
2023-04-30T06:33:25.458Z,10.56
2023-04-30T06:34:29.539Z,10.63
2023-04-30T06:35:34.403Z,10.56
2023-04-30T06:36:38.520Z,10.69
2023-04-30T06:37:42.553Z,10.81
2023-04-30T06:38:47.172Z,10.88
2023-04-30T06:39:51.497Z,11.00
2023-04-30T06:40:55.605Z,11.06
2023-04-30T06:42:00.182Z,11.06
2023-04-30T06:43:04.506Z,10.88
2023-04-30T06:44:08.593Z,10.75
2023-04-30T06:45:21.191Z,10.88
2023-04-30T06:46:17.292Z,10.94
2023-04-30T06:47:21.622Z,11.06
2023-04-30T06:48:26.189Z,11.12
2023-04-30T06:49:30.273Z,11.06
2023-04-30T06:50:34.891Z,11.00
2023-04-30T06:51:38.979Z,10.94
2023-04-30T06:52:43.316Z,10.63
2023-04-30T06:53:43.414Z,10.25
2023-04-30T06:54:47.996Z,10.69
2023-04-30T06:55:52.616Z,11.00
2023-04-30T06:56:56.950Z,11.25
2023-04-30T06:58:00.763Z,11.38
2023-04-30T06:59:05.339Z,11.38
2023-04-30T07:00:09.714Z,11.25
2023-04-30T07:01:14.062Z,11.38
2023-04-30T07:02:19.893Z,11.31
2023-04-30T07:03:22.772Z,11.00
2023-04-30T07:04:26.739Z,10.94
2023-04-30T07:05:31.619Z,11.44
2023-04-30T07:06:35.746Z,11.88
2023-04-30T07:07:39.811Z,11.81
2023-04-30T07:08:44.405Z,11.88
2023-04-30T07:09:49.681Z,11.56
2023-04-30T07:10:59.549Z,11.50
2023-04-30T07:11:57.381Z,11.63
2023-04-30T07:13:01.721Z,11.31
2023-04-30T07:14:06.052Z,11.38
2023-04-30T07:15:10.391Z,11.50
2023-04-30T07:16:14.532Z,11.44
2023-04-30T07:17:18.827Z,11.75
2023-04-30T07:18:23.151Z,11.19
2023-04-30T07:19:27.776Z,11.38
2023-04-30T07:20:32.098Z,11.44
2023-04-30T07:21:36.447Z,11.25
2023-04-30T07:22:40.791Z,11.38
2023-04-30T07:23:40.987Z,11.44
2023-04-30T07:24:45.186Z,10.56
2023-04-30T07:25:49.908Z,10.63
2023-04-30T07:26:54.005Z,10.94
2023-04-30T07:27:58.078Z,11.31
2023-04-30T07:29:02.421Z,11.75
2023-04-30T07:30:06.775Z,11.88
2023-04-30T07:31:11.410Z,12.06
2023-04-30T07:32:15.471Z,12.31
2023-04-30T07:33:19.085Z,12.50
2023-04-30T07:34:24.679Z,12.50
2023-04-30T07:35:29.030Z,12.56
2023-04-30T07:36:32.845Z,12.37
2023-04-30T07:37:39.114Z,12.63
2023-04-30T07:38:41.777Z,12.75
2023-04-30T07:39:45.853Z,12.06
2023-04-30T07:40:50.231Z,11.44
2023-04-30T07:41:55.088Z,11.81
2023-04-30T07:42:57.208Z,12.25
2023-04-30T07:44:01.590Z,12.44
2023-04-30T07:45:06.159Z,12.69
2023-04-30T07:46:10.248Z,12.06
2023-04-30T07:47:14.304Z,12.13
2023-04-30T07:48:18.634Z,12.06
2023-04-30T07:49:23.272Z,12.19
2023-04-30T07:50:27.618Z,12.37
2023-04-30T07:51:31.934Z,12.37
2023-04-30T07:52:36.257Z,12.50
2023-04-30T07:53:36.219Z,12.56
2023-04-30T07:54:40.549Z,12.13
2023-04-30T07:55:45.174Z,11.81
2023-04-30T07:56:49.773Z,11.75
2023-04-30T07:57:54.132Z,11.38
2023-04-30T07:58:58.594Z,11.38
2023-04-30T08:00:03.075Z,11.25
2023-04-30T08:01:07.614Z,11.31
2023-04-30T08:02:11.745Z,12.06
2023-04-30T08:03:16.081Z,12.31
2023-04-30T08:04:23.315Z,12.44
2023-04-30T08:05:22.433Z,12.75
2023-04-30T08:06:26.781Z,12.81
2023-04-30T08:07:31.367Z,12.37
2023-04-30T08:08:35.192Z,12.81
2023-04-30T08:09:39.748Z,13.00
2023-04-30T08:10:44.102Z,12.94
2023-04-30T08:11:48.149Z,12.19
2023-04-30T08:12:52.764Z,12.31
2023-04-30T08:13:56.804Z,12.63
2023-04-30T08:15:01.132Z,12.88
2023-04-30T08:16:06.025Z,13.31
2023-04-30T08:17:09.788Z,13.56
2023-04-30T08:18:14.225Z,13.75
2023-04-30T08:19:18.709Z,13.25
2023-04-30T08:20:25.045Z,12.75
2023-04-30T08:21:27.378Z,12.56
2023-04-30T08:22:31.468Z,12.81
2023-04-30T08:23:35.121Z,12.88
2023-04-30T08:24:39.451Z,12.81
2023-04-30T08:25:44.042Z,12.63
2023-04-30T08:26:47.897Z,12.50
2023-04-30T08:27:52.461Z,12.50
2023-04-30T08:28:56.567Z,12.75
2023-04-30T08:30:00.890Z,13.31
2023-04-30T08:31:05.228Z,13.69
2023-04-30T08:32:09.885Z,13.75
2023-04-30T08:33:16.920Z,14.06
2023-04-30T08:34:15.735Z,14.25
2023-04-30T08:35:20.327Z,14.31
2023-04-30T08:36:24.666Z,14.38
2023-04-30T08:37:29.012Z,14.31
2023-04-30T08:38:33.361Z,14.25
2023-04-30T08:39:37.460Z,14.31
2023-04-30T08:41:46.398Z,14.19
2023-04-30T08:42:50.483Z,14.13
2023-04-30T08:43:55.118Z,14.25
2023-04-30T08:44:59.196Z,14.19
2023-04-30T08:46:04.097Z,13.62
2023-04-30T08:47:07.851Z,13.56
2023-04-30T08:48:12.174Z,13.88
2023-04-30T08:49:17.025Z,14.19
2023-04-30T08:50:21.110Z,13.81
2023-04-30T08:51:25.187Z,13.38
2023-04-30T08:52:29.807Z,13.44
2023-04-30T08:53:30.200Z,14.00
2023-04-30T08:54:34.292Z,14.31
2023-04-30T08:55:38.658Z,14.50
2023-04-30T08:56:43.204Z,14.31
2023-04-30T08:57:47.303Z,14.19
2023-04-30T08:58:51.401Z,14.63
2023-04-30T08:59:56.076Z,14.94
2023-04-30T09:01:00.372Z,14.44
2023-04-30T09:02:04.830Z,14.56
2023-04-30T09:03:09.247Z,14.69
2023-04-30T09:04:13.720Z,14.87
2023-04-30T09:05:17.733Z,15.00
2023-04-30T09:06:22.435Z,14.69
2023-04-30T09:07:26.169Z,15.13
2023-04-30T09:08:30.753Z,14.94
2023-04-30T09:09:35.095Z,14.75
2023-04-30T09:10:39.208Z,14.81
2023-04-30T09:11:43.796Z,14.44
2023-04-30T09:12:47.871Z,14.19
2023-04-30T09:13:52.486Z,13.62
2023-04-30T09:14:56.835Z,14.06
2023-04-30T09:16:00.975Z,14.56
2023-04-30T09:17:05.567Z,14.44
2023-04-30T09:18:09.982Z,14.81
2023-04-30T09:19:13.921Z,15.00
2023-04-30T09:20:18.350Z,15.06
2023-04-30T09:21:22.865Z,14.56
2023-04-30T09:22:27.211Z,14.44
2023-04-30T09:23:27.632Z,14.63
2023-04-30T09:24:31.706Z,15.00
2023-04-30T09:25:36.058Z,15.31
2023-04-30T09:26:40.699Z,15.31
2023-04-30T09:27:44.467Z,15.06
2023-04-30T09:28:48.799Z,14.87
2023-04-30T09:29:53.368Z,15.06
2023-04-30T09:30:57.735Z,15.25
2023-04-30T09:32:02.114Z,15.38
2023-04-30T09:33:08.342Z,15.56
2023-04-30T09:34:11.762Z,15.75
2023-04-30T09:35:16.077Z,15.25
2023-04-30T09:36:19.917Z,14.75
2023-04-30T09:37:24.263Z,15.19
2023-04-30T09:38:28.863Z,15.13
2023-04-30T09:39:32.936Z,15.50
2023-04-30T09:40:37.275Z,15.94
2023-04-30T09:41:41.859Z,15.25
2023-04-30T09:42:45.939Z,15.56
2023-04-30T09:43:50.776Z,15.50
2023-04-30T09:44:54.282Z,15.38
2023-04-30T09:45:59.329Z,15.56
2023-04-30T09:46:58.994Z,15.75
2023-04-30T09:48:16.499Z,15.88
2023-04-30T09:49:07.190Z,15.25
2023-04-30T09:50:11.686Z,14.81
2023-04-30T09:51:15.784Z,14.44
2023-04-30T09:52:20.375Z,14.50
2023-04-30T09:53:26.104Z,14.69
2023-04-30T09:54:30.189Z,14.81
2023-04-30T09:55:34.718Z,15.13
2023-04-30T09:56:38.788Z,14.87
2023-04-30T09:57:43.138Z,14.87
2023-04-30T09:59:51.561Z,15.63
2023-04-30T10:00:55.897Z,16.00
2023-04-30T10:02:00.234Z,15.81
2023-04-30T10:03:04.859Z,15.94
2023-04-30T10:04:09.259Z,16.12
2023-04-30T10:05:13.737Z,16.12
2023-04-30T10:06:17.892Z,16.44
2023-04-30T10:07:22.840Z,16.56
2023-04-30T10:08:26.505Z,16.69
2023-04-30T10:09:30.575Z,16.75
2023-04-30T10:10:34.943Z,16.87
2023-04-30T10:11:39.316Z,17.00
2023-04-30T10:12:43.874Z,16.75
2023-04-30T10:13:48.265Z,16.56
2023-04-30T10:14:52.622Z,16.75
2023-04-30T10:15:56.942Z,16.62
2023-04-30T10:17:01.087Z,16.87
2023-04-30T10:18:05.394Z,17.00
2023-04-30T10:19:09.677Z,16.19
2023-04-30T10:20:14.378Z,16.37
2023-04-30T10:21:18.647Z,16.75
2023-04-30T10:22:23.221Z,16.81
2023-04-30T10:23:28.334Z,16.50
2023-04-30T10:24:32.411Z,16.69
2023-04-30T10:25:36.753Z,16.94
2023-04-30T10:26:41.348Z,17.06
2023-04-30T10:27:45.440Z,17.00
2023-04-30T10:28:49.819Z,16.94
2023-04-30T10:29:54.660Z,17.00
2023-04-30T10:30:58.732Z,17.06
2023-04-30T10:32:03.376Z,17.19
2023-04-30T10:33:07.468Z,17.19
2023-04-30T10:34:11.493Z,16.62
2023-04-30T10:35:15.819Z,16.44
2023-04-30T10:36:20.455Z,16.56
2023-04-30T10:37:24.533Z,16.25
2023-04-30T10:38:36.851Z,16.25
2023-04-30T10:39:33.725Z,16.25
2023-04-30T10:40:38.068Z,16.12
2023-04-30T10:41:41.869Z,16.25
2023-04-30T10:42:46.210Z,15.81
2023-04-30T10:43:50.812Z,15.94
2023-04-30T10:44:54.893Z,16.00
2023-04-30T10:45:59.297Z,15.94
2023-04-30T10:47:03.577Z,15.94
2023-04-30T10:48:08.031Z,16.19
2023-04-30T10:49:12.559Z,16.56
2023-04-30T10:50:16.873Z,16.62
2023-04-30T10:51:20.936Z,16.87
2023-04-30T10:52:25.313Z,16.69
2023-04-30T10:53:31.139Z,16.69
2023-04-30T10:54:34.962Z,16.56
2023-04-30T10:55:39.329Z,16.62
2023-04-30T10:56:43.927Z,16.75
2023-04-30T10:57:48.255Z,16.94
2023-04-30T10:58:52.598Z,17.06
2023-04-30T10:59:57.088Z,17.00
2023-04-30T11:01:01.052Z,17.06
2023-04-30T11:02:05.592Z,16.87
2023-04-30T11:03:09.680Z,17.19
2023-04-30T11:04:14.263Z,17.31
2023-04-30T11:05:18.858Z,17.31
2023-04-30T11:06:22.980Z,17.25
2023-04-30T11:07:27.288Z,17.12
2023-04-30T11:08:31.786Z,17.44
2023-04-30T11:09:35.965Z,17.50
2023-04-30T11:10:40.027Z,16.87
2023-04-30T11:11:44.374Z,16.87
2023-04-30T11:12:48.966Z,16.94
2023-04-30T11:13:53.035Z,17.06
2023-04-30T11:14:57.633Z,17.12
2023-04-30T11:16:02.256Z,17.50
2023-04-30T11:17:06.568Z,17.31
2023-04-30T11:18:10.816Z,17.37
2023-04-30T11:19:15.021Z,16.56
2023-04-30T11:20:19.111Z,16.31
2023-04-30T11:21:23.735Z,16.37
2023-04-30T11:22:28.061Z,16.62
2023-04-30T11:24:38.002Z,17.37
2023-04-30T11:25:42.092Z,17.37
2023-04-30T11:26:46.440Z,17.12
2023-04-30T11:27:50.509Z,17.12
2023-04-30T11:28:54.887Z,16.75
2023-04-30T11:29:59.482Z,16.81
2023-04-30T11:31:03.863Z,16.56
2023-04-30T11:32:08.130Z,16.31
2023-04-30T11:33:12.455Z,16.25
2023-04-30T11:34:16.796Z,16.37
2023-04-30T11:35:21.135Z,16.37
2023-04-30T11:36:25.492Z,16.50
2023-04-30T11:37:29.562Z,16.87
2023-04-30T11:38:33.893Z,17.00
2023-04-30T11:39:38.269Z,17.19
2023-04-30T11:40:42.555Z,17.19
2023-04-30T11:41:47.409Z,17.50
2023-04-30T11:42:51.500Z,17.87
2023-04-30T11:43:55.598Z,17.94
2023-04-30T11:44:59.902Z,18.19
2023-04-30T11:46:04.249Z,18.06
2023-04-30T11:47:09.003Z,18.12
2023-04-30T11:48:13.166Z,18.06
2023-04-30T11:49:17.262Z,18.06
2023-04-30T11:50:21.599Z,17.87
2023-04-30T11:51:26.453Z,18.00
2023-04-30T11:52:30.527Z,17.87
2023-04-30T11:53:36.676Z,17.75
2023-04-30T11:54:40.821Z,17.81
2023-04-30T11:55:45.114Z,17.69
2023-04-30T11:56:49.472Z,17.87
2023-04-30T11:57:53.837Z,17.94
2023-04-30T11:58:57.947Z,18.00
2023-04-30T12:00:02.562Z,18.06
2023-04-30T12:01:06.909Z,17.81
2023-04-30T12:02:13.495Z,17.94
2023-04-30T12:03:15.451Z,17.94
2023-04-30T12:04:19.854Z,18.00
2023-04-30T12:05:24.363Z,18.00
2023-04-30T12:06:28.538Z,18.06
2023-04-30T12:07:40.783Z,18.12
2023-04-30T12:08:37.658Z,17.94
2023-04-30T12:09:42.005Z,18.06
2023-04-30T12:10:46.127Z,17.87
2023-04-30T12:11:50.475Z,17.37
2023-04-30T12:12:55.062Z,17.56
2023-04-30T12:13:59.405Z,17.87
2023-04-30T12:15:04.025Z,17.94
2023-04-30T12:16:08.144Z,18.06
2023-04-30T12:17:12.936Z,17.75
2023-04-30T12:18:17.070Z,18.06
2023-04-30T12:19:21.364Z,18.25
2023-04-30T12:20:25.460Z,18.31
2023-04-30T12:21:29.794Z,18.37
2023-04-30T12:22:34.389Z,18.50
2023-04-30T12:23:39.991Z,18.44
2023-04-30T12:24:43.817Z,18.19
2023-04-30T12:25:48.418Z,18.37
2023-04-30T12:26:52.781Z,17.87
2023-04-30T12:27:56.062Z,17.62
2023-04-30T12:29:01.411Z,17.62
2023-04-30T12:30:05.496Z,17.69
2023-04-30T12:31:16.645Z,17.75
2023-04-30T12:32:14.478Z,18.00
2023-04-30T12:33:18.830Z,17.94
2023-04-30T12:34:23.139Z,18.00
2023-04-30T12:35:27.768Z,17.69
2023-04-30T12:36:31.856Z,17.69
2023-04-30T12:37:36.199Z,17.75
2023-04-30T12:38:40.572Z,18.00
2023-04-30T12:39:44.655Z,18.19
2023-04-30T12:40:49.308Z,18.25
2023-04-30T12:41:53.618Z,18.37
2023-04-30T12:42:57.781Z,18.25
2023-04-30T12:44:02.559Z,18.31
2023-04-30T12:45:06.653Z,18.31
2023-04-30T12:46:10.043Z,18.37
2023-04-30T12:47:15.071Z,18.56
2023-04-30T12:48:19.699Z,18.56
2023-04-30T12:49:23.757Z,18.31
2023-04-30T12:50:28.339Z,18.12
2023-04-30T12:51:32.432Z,18.12
2023-04-30T12:52:37.034Z,18.06
2023-04-30T12:53:42.631Z,18.12
2023-04-30T12:54:46.469Z,18.12
2023-04-30T12:55:50.810Z,18.25
2023-04-30T12:56:55.146Z,18.25
2023-04-30T12:57:59.965Z,18.25
2023-04-30T12:59:04.065Z,18.19
2023-04-30T13:00:08.431Z,18.31
2023-04-30T13:01:13.117Z,18.37
2023-04-30T13:02:17.360Z,18.44
2023-04-30T13:03:21.423Z,18.50
2023-04-30T13:04:25.776Z,18.37
2023-04-30T13:05:30.125Z,18.31
2023-04-30T13:06:34.220Z,18.19
2023-04-30T13:07:38.794Z,18.25
2023-04-30T13:08:57.101Z,18.37
2023-04-30T13:09:47.488Z,18.37
2023-04-30T13:10:51.827Z,18.00
2023-04-30T13:11:56.151Z,17.69
2023-04-30T13:13:00.239Z,17.81
2023-04-30T13:14:04.854Z,18.19
2023-04-30T13:15:08.917Z,18.31
2023-04-30T13:16:13.513Z,18.31
2023-04-30T13:17:17.602Z,18.50
2023-04-30T13:18:22.186Z,18.62
2023-04-30T13:19:26.534Z,18.62
2023-04-30T13:20:31.109Z,18.75
2023-04-30T13:21:35.482Z,18.81
2023-04-30T13:22:39.298Z,18.75
2023-04-30T13:23:52.524Z,18.87
2023-04-30T13:24:49.304Z,18.94
2023-04-30T13:25:53.613Z,18.87
2023-04-30T13:26:57.967Z,18.87
2023-04-30T13:28:02.532Z,18.69
2023-04-30T13:29:06.660Z,18.69
2023-04-30T13:30:11.008Z,18.75
2023-04-30T13:31:15.117Z,18.81
2023-04-30T13:32:19.387Z,18.31
2023-04-30T13:33:23.990Z,18.19
2023-04-30T13:34:28.077Z,18.12
2023-04-30T13:35:32.685Z,17.81
2023-04-30T13:36:37.037Z,18.12
2023-04-30T13:37:41.666Z,18.31
2023-04-30T13:38:45.975Z,18.19
2023-04-30T13:39:50.078Z,18.06
2023-04-30T13:40:54.129Z,17.94
2023-04-30T13:41:58.726Z,18.00
2023-04-30T13:43:03.100Z,18.19
2023-04-30T13:44:07.135Z,18.44
2023-04-30T13:45:11.744Z,18.25
2023-04-30T13:46:16.108Z,18.06
2023-04-30T13:47:20.666Z,18.37
2023-04-30T13:48:24.999Z,18.56
2023-04-30T13:49:28.852Z,18.69
2023-04-30T13:50:33.176Z,18.44
2023-04-30T13:51:37.514Z,18.44
2023-04-30T13:52:41.858Z,18.56
2023-04-30T13:53:47.464Z,18.37
2023-04-30T13:54:52.080Z,18.19
2023-04-30T13:55:56.393Z,18.19
2023-04-30T13:57:00.476Z,17.87
2023-04-30T13:58:04.551Z,18.06
2023-04-30T13:59:09.174Z,18.19
2023-04-30T14:00:13.389Z,18.37
2023-04-30T14:01:17.941Z,18.37
2023-04-30T14:02:22.000Z,18.69
2023-04-30T14:03:26.474Z,18.62
2023-04-30T14:04:30.908Z,18.69
2023-04-30T14:05:35.252Z,18.75